Time;durP1;ratioP1;P1;durP2;ratioP2;P2;SDS_P1;SDS_P2;PMS_P1;PMS_P2;Temp;Humidity;BMP_temperature;BMP_pressure;BME280_temperature;BME280_humidity;BME280_pressure;Samples;Min_cycle;Max_cycle;Signal;HPM_P1;HPM_P2
2021/11/24 00:00:42;;;;;;;5.63;4.80;;;;;;;0.70;82.14;97569.50;5106196;28;20387;-68
2021/11/24 00:03:07;;;;;;;6.53;4.70;;;;;;;0.62;82.19;97564.25;5093445;28;20452;-68
2021/11/24 00:05:33;;;;;;;7.20;5.27;;;;;;;0.45;82.42;97565.03;5090420;28;20411;-68
2021/11/24 00:07:59;;;;;;;6.95;5.38;;;;;;;0.48;82.74;97557.00;5091916;28;20755;-68
2021/11/24 00:10:29;;;;;;;5.80;4.90;;;;;;;0.48;83.12;97564.75;5090782;28;20469;-68
2021/11/24 00:12:55;;;;;;;6.88;5.07;;;;;;;0.25;83.62;97569.47;5107872;28;20865;-70
2021/11/24 00:15:21;;;;;;;6.38;5.25;;;;;;;0.09;85.28;97568.47;5075131;28;20443;-68
2021/11/24 00:17:47;;;;;;;8.63;5.40;;;;;;;0.15;85.14;97565.31;5092039;28;20390;-68
2021/11/24 00:20:12;;;;;;;8.90;5.30;;;;;;;0.47;83.08;97564.88;5092091;28;20381;-68
2021/11/24 00:22:38;;;;;;;7.50;5.40;;;;;;;0.27;83.99;97575.31;5105630;28;20737;-68
2021/11/24 00:25:04;;;;;;;6.45;5.10;;;;;;;0.30;84.22;97572.44;5111445;28;20392;-68
2021/11/24 00:27:30;;;;;;;7.97;5.53;;;;;;;0.42;83.90;97565.31;5107528;28;20409;-68
2021/11/24 00:29:55;;;;;;;7.23;5.70;;;;;;;0.30;84.25;97572.44;5092992;28;20443;-69
2021/11/24 00:32:21;;;;;;;6.97;5.60;;;;;;;0.21;84.35;97573.31;5091609;28;20390;-68
2021/11/24 00:34:46;;;;;;;8.33;5.43;;;;;;;0.16;84.95;97566.94;5091758;28;20405;-68
2021/11/24 00:37:12;;;;;;;8.37;5.73;;;;;;;0.08;85.66;97561.69;5093239;28;20866;-68
2021/11/24 00:39:37;;;;;;;7.83;5.73;;;;;;;-0.03;85.99;97566.06;5114755;28;20926;-68
2021/11/24 00:42:03;;;;;;;7.32;5.63;;;;;;;0.03;86.16;97561.28;5116241;28;20388;-68
2021/11/24 00:44:29;;;;;;;7.10;5.32;;;;;;;-0.02;86.53;97566.88;5097532;28;20392;-68
2021/11/24 00:46:54;;;;;;;7.07;5.45;;;;;;;-0.05;86.75;97565.38;5094018;28;20412;-68
2021/11/24 00:49:19;;;;;;;10.77;5.73;;;;;;;0.20;85.47;97560.53;5103590;28;20744;-68
2021/11/24 00:51:45;;;;;;;8.60;5.70;;;;;;;0.20;85.06;97553.63;5112482;28;20394;-67
2021/11/24 00:54:10;;;;;;;7.70;5.97;;;;;;;-0.02;86.08;97554.81;5088682;28;20397;-67
2021/11/24 00:56:36;;;;;;;9.18;5.72;;;;;;;-0.29;87.44;97557.34;5096129;28;20392;-67
2021/11/24 00:59:03;;;;;;;8.40;5.90;;;;;;;-0.16;87.46;97555.25;5112744;28;20455;-68
2021/11/24 01:01:29;;;;;;;8.30;5.80;;;;;;;-0.09;87.20;97558.06;5114883;28;20400;-67
2021/11/24 01:03:55;;;;;;;9.90;6.10;;;;;;;0.01;87.17;97553.69;5096686;28;20449;-67
2021/11/24 01:06:21;;;;;;;6.67;5.53;;;;;;;-0.06;87.24;97550.88;5114705;28;20954;-68
2021/11/24 01:08:46;;;;;;;8.47;6.07;;;;;;;0.05;86.91;97552.47;5115434;28;20406;-67
2021/11/24 01:11:11;;;;;;;8.97;5.90;;;;;;;-0.19;87.11;97550.38;5113943;28;20381;-68
2021/11/24 01:13:37;;;;;;;8.20;5.82;;;;;;;-0.20;87.65;97553.09;5115074;28;20403;-69
2021/11/24 01:16:03;;;;;;;9.48;6.65;;;;;;;-0.19;87.18;97555.53;5093920;28;20409;-68
2021/11/24 01:18:28;;;;;;;10.55;6.70;;;;;;;-0.04;87.60;97554.13;5093944;28;20747;-69
2021/11/24 01:20:54;;;;;;;8.97;6.13;;;;;;;-0.19;87.86;97552.16;5093895;28;20386;-68
2021/11/24 01:23:19;;;;;;;7.93;6.33;;;;;;;-0.23;87.86;97559.34;5098146;28;20877;-69
2021/11/24 01:25:45;;;;;;;8.10;6.03;;;;;;;-0.07;87.22;97549.28;5115164;28;20738;-69
2021/11/24 01:28:10;;;;;;;9.00;6.30;;;;;;;-0.05;87.33;97555.06;5115156;28;20391;-69
2021/11/24 01:30:36;;;;;;;7.17;5.73;;;;;;;-0.08;87.37;97550.22;5115069;28;20384;-69
2021/11/24 01:33:01;;;;;;;7.83;5.90;;;;;;;-0.07;86.74;97545.88;5097643;28;20390;-69
2021/11/24 01:35:27;;;;;;;7.47;5.80;;;;;;;0.03;86.43;97548.41;5086772;28;20405;-68
2021/11/24 01:37:53;;;;;;;7.77;5.83;;;;;;;-0.09;86.82;97540.84;5094306;28;20425;-68
2021/11/24 01:40:19;;;;;;;8.48;5.90;;;;;;;-0.31;88.03;97541.19;5106072;28;20453;-68
2021/11/24 01:42:44;;;;;;;7.65;5.93;;;;;;;-0.31;88.34;97541.19;5100072;28;20389;-69
2021/11/24 01:45:12;;;;;;;9.10;6.20;;;;;;;-0.31;88.39;97530.91;5094698;28;20401;-69
2021/11/24 01:47:37;;;;;;;7.07;5.63;;;;;;;-0.40;88.73;97533.50;5094831;28;20430;-68
2021/11/24 01:50:05;;;;;;;8.20;6.32;;;;;;;-0.25;88.39;97530.34;5093540;28;20409;-68
2021/11/24 01:52:32;;;;;;;7.40;6.00;;;;;;;-0.35;88.24;97533.91;5095539;28;20386;-69
2021/11/24 01:54:57;;;;;;;8.02;5.75;;;;;;;-0.36;88.78;97532.28;5094601;28;20495;-68
2021/11/24 01:57:27;;;;;;;7.85;5.95;;;;;;;-0.16;87.56;97531.25;5094509;28;20473;-69
2021/11/24 01:59:53;;;;;;;7.40;5.70;;;;;;;-0.13;87.04;97530.97;5110043;28;20770;-69
2021/11/24 02:02:18;;;;;;;7.60;5.82;;;;;;;-0.22;87.42;97517.16;5094666;28;20401;-69
2021/11/24 02:04:43;;;;;;;8.53;6.77;;;;;;;-0.38;87.99;97521.28;5100608;28;20396;-68
2021/11/24 02:07:09;;;;;;;7.23;6.10;;;;;;;-0.27;87.79;97515.97;5096252;28;20864;-69
2021/11/24 02:09:34;;;;;;;9.10;6.57;;;;;;;-0.48;88.96;97511.84;5114358;28;20515;-68
2021/11/24 02:12:00;;;;;;;7.97;6.63;;;;;;;-0.34;88.00;97514.94;5096865;28;20473;-70
2021/11/24 02:14:26;;;;;;;7.15;5.80;;;;;;;-0.39;87.97;97505.03;5096168;28;20415;-69
2021/11/24 02:16:53;;;;;;;8.52;6.30;;;;;;;-0.24;87.50;97507.97;5106618;28;20394;-69
2021/11/24 02:19:20;;;;;;;8.30;6.13;;;;;;;-0.30;87.80;97501.63;5094235;28;20391;-69
2021/11/24 02:21:48;;;;;;;8.13;5.93;;;;;;;-0.09;86.61;97497.06;5108759;28;20392;-68
2021/11/24 02:24:15;;;;;;;7.18;5.80;;;;;;;-0.21;86.66;97494.81;5112869;28;20406;-69
2021/11/24 02:26:41;;;;;;;7.07;6.28;;;;;;;-0.10;86.52;97484.31;5093944;28;20406;-69
2021/11/24 02:29:07;;;;;;;10.57;6.37;;;;;;;-0.11;86.29;97483.50;5094009;28;20835;-68
2021/11/24 02:31:32;;;;;;;8.63;6.30;;;;;;;-0.37;86.85;97481.72;5101363;28;20929;-68
2021/11/24 02:33:58;;;;;;;7.85;6.28;;;;;;;-0.29;87.19;97477.50;5089885;28;20935;-68
2021/11/24 02:36:25;;;;;;;7.60;5.90;;;;;;;-0.43;87.48;97480.53;5104669;28;20872;-68
2021/11/24 02:38:51;;;;;;;7.78;6.53;;;;;;;-0.55;87.96;97479.06;5112763;28;20426;-69
2021/11/24 02:41:17;;;;;;;9.27;6.67;;;;;;;-0.57;88.73;97476.66;5102609;28;20425;-68
2021/11/24 02:43:43;;;;;;;8.20;6.40;;;;;;;-0.50;88.62;97475.13;5111052;28;20403;-69
2021/11/24 02:46:08;;;;;;;7.70;6.47;;;;;;;-0.49;88.53;97481.09;5113001;28;20768;-69
2021/11/24 02:48:34;;;;;;;8.25;6.85;;;;;;;-0.37;87.40;97471.41;5113203;28;20392;-69
2021/11/24 02:51:01;;;;;;;9.38;7.03;;;;;;;-0.43;87.75;97470.22;5112887;28;20471;-69
2021/11/24 02:53:28;;;;;;;8.45;6.80;;;;;;;-0.38;88.09;97468.03;5097154;28;20427;-68
2021/11/24 02:55:55;;;;;;;8.52;6.47;;;;;;;-0.37;87.84;97467.09;5113526;28;20445;-69
2021/11/24 02:58:21;;;;;;;8.55;7.05;;;;;;;-0.02;87.03;97451.75;5112877;28;20484;-69
2021/11/24 03:00:46;;;;;;;8.80;6.70;;;;;;;-0.18;86.85;97458.47;5110901;28;20534;-69
2021/11/24 03:03:12;;;;;;;9.67;6.70;;;;;;;0.00;86.44;97454.97;5094724;28;20505;-69
2021/11/24 03:05:37;;;;;;;10.77;6.80;;;;;;;0.06;86.24;97457.94;5112834;28;20630;-69
2021/11/24 03:08:04;;;;;;;9.07;6.53;;;;;;;0.08;85.71;97461.19;5112802;28;20396;-69
2021/11/24 03:10:31;;;;;;;9.45;6.38;;;;;;;-0.08;86.16;97457.47;5108327;28;20397;-69
2021/11/24 03:12:57;;;;;;;9.32;7.10;;;;;;;-0.26;87.23;97451.44;5109075;28;20425;-69
2021/11/24 03:15:23;;;;;;;8.07;6.57;;;;;;;-0.19;87.03;97443.97;5112528;28;20392;-69
2021/11/24 03:17:49;;;;;;;9.65;6.70;;;;;;;-0.40;87.62;97448.53;5112526;28;20407;-69
2021/11/24 03:20:14;;;;;;;8.57;7.05;;;;;;;-0.45;88.29;97454.13;5110355;28;20745;-69
2021/11/24 03:22:40;;;;;;;8.32;6.45;;;;;;;-0.47;88.33;97448.28;5092992;28;20390;-68
2021/11/24 03:25:08;;;;;;;8.53;6.83;;;;;;;-0.32;87.99;97444.28;5092788;28;20917;-69
2021/11/24 03:27:36;;;;;;;9.00;6.73;;;;;;;-0.33;87.70;97436.69;5092736;28;20404;-70
2021/11/24 03:30:07;;;;;;;8.60;6.70;;;;;;;-0.09;86.78;97439.56;5092669;28;20396;-70
2021/11/24 03:32:32;;;;;;;8.53;6.43;;;;;;;-0.20;86.60;97432.84;5094176;28;20445;-69
2021/11/24 03:34:58;;;;;;;9.30;6.60;;;;;;;-0.48;88.17;97437.19;5095692;28;20394;-69
2021/11/24 03:37:24;;;;;;;8.02;6.88;;;;;;;-0.46;88.06;97437.03;5092334;28;20440;-69
2021/11/24 03:39:50;;;;;;;8.95;6.97;;;;;;;0.00;86.87;97438.72;5091202;28;20425;-69
2021/11/24 03:42:17;;;;;;;8.15;6.75;;;;;;;-0.54;88.08;97437.75;5107279;28;20867;-71
2021/11/24 03:44:43;;;;;;;8.48;6.93;;;;;;;-0.44;88.12;97432.53;5092324;28;20859;-70
2021/11/24 03:47:09;;;;;;;10.00;7.32;;;;;;;-0.67;89.28;97437.22;5092439;28;20405;-69
2021/11/24 03:49:34;;;;;;;7.93;6.75;;;;;;;-0.60;89.06;97428.00;5094166;28;20729;-69
2021/11/24 03:52:00;;;;;;;8.20;6.72;;;;;;;-0.82;89.99;97425.78;5095478;28;20504;-69
2021/11/24 03:54:25;;;;;;;8.65;6.78;;;;;;;-0.94;90.54;97426.88;5111954;28;20404;-69
2021/11/24 03:56:51;;;;;;;9.83;6.60;;;;;;;-0.96;90.83;97421.09;5112406;28;20388;-70
2021/11/24 03:59:16;;;;;;;8.50;6.60;;;;;;;-0.78;90.49;97416.81;5109080;28;20400;-69
2021/11/24 04:01:42;;;;;;;11.03;7.67;;;;;;;-0.74;90.22;97418.19;5106144;28;20435;-69
2021/11/24 04:04:07;;;;;;;8.67;6.87;;;;;;;-0.52;89.74;97424.75;5093918;28;20394;-69
2021/11/24 04:06:33;;;;;;;11.27;7.50;;;;;;;-1.16;91.18;97415.16;5096318;28;20486;-69
2021/11/24 04:08:59;;;;;;;9.98;7.38;;;;;;;-0.63;90.16;97412.84;5111721;28;20529;-69
2021/11/24 04:11:25;;;;;;;11.27;7.80;;;;;;;-0.84;90.97;97410.47;5111849;28;20411;-69
2021/11/24 04:13:51;;;;;;;9.55;7.50;;;;;;;-0.96;91.33;97416.75;5095625;28;20386;-70
2021/11/24 04:16:16;;;;;;;10.93;7.73;;;;;;;-1.04;91.24;97426.91;5090140;28;20395;-69
2021/11/24 04:18:42;;;;;;;10.80;7.80;;;;;;;-1.23;92.45;97418.44;5091722;28;20394;-69
2021/11/24 04:21:07;;;;;;;11.93;7.33;;;;;;;-1.29;93.60;97417.22;5092429;28;20596;-69
2021/11/24 04:23:32;;;;;;;9.27;7.22;;;;;;;-1.16;93.18;97412.59;5104358;28;20539;-69
2021/11/24 04:25:58;;;;;;;9.67;7.30;;;;;;;-1.45;93.61;97414.41;5095114;28;20414;-69
2021/11/24 04:28:23;;;;;;;8.50;6.80;;;;;;;-1.32;93.73;97410.56;5091601;28;20385;-69
2021/11/24 04:30:49;;;;;;;10.13;7.70;;;;;;;-1.35;93.98;97416.00;5091702;28;20448;-69
2021/11/24 04:33:16;;;;;;;11.05;7.55;;;;;;;-1.23;94.25;97411.53;5091013;28;20389;-69
2021/11/24 04:35:42;;;;;;;10.82;7.60;;;;;;;-1.16;93.52;97410.00;5111216;28;20449;-69
2021/11/24 04:38:07;;;;;;;8.47;7.17;;;;;;;-1.12;93.22;97403.66;5110429;28;20415;-69
2021/11/24 04:40:33;;;;;;;10.68;7.93;;;;;;;-1.22;93.09;97404.59;5090434;28;20390;-69
2021/11/24 04:43:01;;;;;;;10.80;7.60;;;;;;;-1.23;93.80;97405.56;5099281;28;20757;-69
2021/11/24 04:45:27;;;;;;;9.43;7.67;;;;;;;-1.23;93.89;97396.09;5111420;28;20384;-68
2021/11/24 04:47:52;;;;;;;9.20;6.90;;;;;;;-1.38;94.30;97398.28;5111323;28;20445;-69
2021/11/24 04:50:18;;;;;;;10.20;7.77;;;;;;;-1.36;94.53;97398.97;5108651;28;20859;-68
2021/11/24 04:52:44;;;;;;;11.93;7.93;;;;;;;-1.30;94.40;97410.44;5098044;28;20767;-69
2021/11/24 04:55:10;;;;;;;9.88;8.10;;;;;;;-1.26;94.01;97402.31;5093598;28;20384;-69
2021/11/24 04:57:36;;;;;;;11.25;8.15;;;;;;;-1.11;93.13;97409.59;5106809;28;20749;-70
2021/11/24 05:00:06;;;;;;;11.38;8.07;;;;;;;-1.09;93.26;97402.56;5090325;28;20386;-69
2021/11/24 05:02:32;;;;;;;14.55;8.48;;;;;;;-1.34;94.30;97403.97;5111899;28;20933;-68
2021/11/24 05:04:57;;;;;;;11.60;8.55;;;;;;;-1.56;95.54;97399.91;5111213;28;20511;-69
2021/11/24 05:07:23;;;;;;;11.63;8.30;;;;;;;-1.49;96.14;97395.03;5111648;28;20396;-69
2021/11/24 05:09:48;;;;;;;11.80;8.40;;;;;;;-1.43;95.62;97390.16;5091725;28;20398;-69
2021/11/24 05:12:14;;;;;;;11.10;8.45;;;;;;;-1.48;96.34;97391.50;5089875;28;20390;-69
2021/11/24 05:14:40;;;;;;;10.50;8.30;;;;;;;-1.44;95.93;97392.84;5090029;28;20390;-69
2021/11/24 05:17:11;;;;;;;9.45;7.70;;;;;;;-1.60;96.87;97400.31;5093503;28;20400;-69
2021/11/24 05:19:38;;;;;;;10.93;8.40;;;;;;;-1.58;96.05;97406.13;5109877;28;20383;-69
2021/11/24 05:22:05;;;;;;;13.23;9.07;;;;;;;-1.56;96.35;97397.31;5092727;28;20795;-70
2021/11/24 05:24:30;;;;;;;11.98;8.82;;;;;;;-1.78;97.16;97397.59;5075199;28;20424;-69
2021/11/24 05:26:56;;;;;;;12.73;9.32;;;;;;;-1.80;97.02;97392.63;5095045;28;20437;-69
2021/11/24 05:29:22;;;;;;;13.38;9.73;;;;;;;-1.89;98.08;97385.69;5096761;28;20396;-69
2021/11/24 05:31:48;;;;;;;12.73;9.90;;;;;;;-1.90;98.12;97388.41;5114611;28;20380;-69
2021/11/24 05:34:14;;;;;;;13.95;9.35;;;;;;;-1.91;98.06;97395.31;5093229;28;20401;-69
2021/11/24 05:36:39;;;;;;;13.43;9.30;;;;;;;-1.88;98.88;97397.59;5098714;28;20391;-69
2021/11/24 05:39:08;;;;;;;13.37;9.43;;;;;;;-1.69;97.22;97392.47;5100922;28;20488;-69
2021/11/24 05:41:37;;;;;;;10.73;8.98;;;;;;;-1.65;96.60;97397.34;5095776;28;20397;-69
2021/11/24 05:44:25;;;;;;;13.85;9.95;;;;;;;-1.72;97.74;97390.16;5093176;28;20763;-69
2021/11/24 05:46:55;;;;;;;10.87;8.93;;;;;;;-1.80;97.82;97387.47;5081178;28;20969;-69
2021/11/24 05:49:21;;;;;;;13.55;9.38;;;;;;;-1.92;98.26;97377.47;5094593;28;20917;-69
2021/11/24 05:51:47;;;;;;;13.05;9.27;;;;;;;-1.72;97.61;97376.50;5096139;28;20471;-69
2021/11/24 05:54:13;;;;;;;14.50;9.95;;;;;;;-1.81;98.25;97380.72;5112419;28;20444;-69
2021/11/24 05:56:39;;;;;;;12.23;9.70;;;;;;;-2.01;99.34;97371.38;5094079;28;20389;-69
2021/11/24 05:59:09;;;;;;;14.25;10.35;;;;;;;-1.83;98.68;97377.47;5094229;28;20405;-69
2021/11/24 06:01:35;;;;;;;13.15;9.80;;;;;;;-1.97;99.84;97374.47;5099400;28;20398;-69
2021/11/24 06:04:02;;;;;;;14.70;10.50;;;;;;;-1.95;99.53;97378.53;5113487;28;20756;-69
2021/11/24 06:06:28;;;;;;;13.55;10.68;;;;;;;-1.84;99.53;97373.25;5113811;28;20420;-69
2021/11/24 06:08:53;;;;;;;13.82;10.57;;;;;;;-1.68;97.96;97370.19;5092385;28;20394;-69
2021/11/24 06:11:19;;;;;;;14.60;11.00;;;;;;;-1.72;97.70;97379.88;5097946;28;20737;-69
2021/11/24 06:13:45;;;;;;;15.13;11.45;;;;;;;-1.58;98.03;97365.84;5099338;28;20919;-70
2021/11/24 06:16:10;;;;;;;18.15;12.13;;;;;;;-1.56;96.97;97373.41;5093846;28;20462;-70
2021/11/24 06:18:36;;;;;;;18.45;12.65;;;;;;;-1.59;97.29;97366.78;5094055;28;20485;-69
2021/11/24 06:21:01;;;;;;;15.07;11.27;;;;;;;-1.79;97.70;97370.31;5094380;28;20413;-70
2021/11/24 06:23:26;;;;;;;15.40;11.00;;;;;;;-1.78;98.07;97364.19;5113507;28;20383;-69
2021/11/24 06:25:52;;;;;;;15.35;11.45;;;;;;;-1.72;98.11;97363.66;5095593;28;20426;-69
2021/11/24 06:28:17;;;;;;;17.87;11.03;;;;;;;-1.57;97.16;97364.88;5092175;28;20433;-70
2021/11/24 06:30:42;;;;;;;15.93;11.93;;;;;;;-1.49;96.55;97356.47;5093571;28;20413;-70
2021/11/24 06:33:08;;;;;;;16.02;12.07;;;;;;;-1.60;96.88;97349.72;5093417;28;20389;-70
2021/11/24 06:35:33;;;;;;;14.73;11.40;;;;;;;-1.83;97.84;97356.91;5093676;28;20807;-70
2021/11/24 06:37:59;;;;;;;14.70;10.77;;;;;;;-1.83;99.30;97362.03;5102583;28;20399;-69
2021/11/24 06:40:25;;;;;;;15.87;11.30;;;;;;;-1.77;98.55;97363.25;5113514;28;20772;-69
2021/11/24 06:42:51;;;;;;;14.77;11.13;;;;;;;-1.79;98.36;97358.28;5099210;28;20386;-70
2021/11/24 06:45:16;;;;;;;16.17;11.90;;;;;;;-1.94;99.86;97356.22;5095028;28;20407;-70
2021/11/24 06:47:42;;;;;;;17.80;11.80;;;;;;;-1.92;100.00;97351.78;5112115;28;20401;-69
2021/11/24 06:50:10;;;;;;;16.20;12.05;;;;;;;-1.75;100.00;97357.06;5094886;28;20541;-72
2021/11/24 06:52:36;;;;;;;15.57;11.48;;;;;;;-1.83;99.88;97361.22;5109110;28;20392;-69
2021/11/24 06:55:03;;;;;;;15.80;11.63;;;;;;;-1.84;99.82;97354.50;5112749;28;20753;-69
2021/11/24 06:57:28;;;;;;;16.45;11.02;;;;;;;-1.84;100.00;97360.41;5091245;28;20413;-69
2021/11/24 06:59:53;;;;;;;20.25;13.73;;;;;;;-1.57;99.98;97357.19;5093830;28;20382;-69
2021/11/24 07:02:19;;;;;;;22.47;14.03;;;;;;;-1.70;99.76;97346.38;5097590;28;20785;-69
2021/11/24 07:04:44;;;;;;;18.57;12.20;;;;;;;-1.52;100.00;97346.50;5093826;28;20422;-69
2021/11/24 07:07:10;;;;;;;17.47;13.00;;;;;;;-1.47;98.94;97357.16;5093316;28;20493;-70
2021/11/24 07:09:35;;;;;;;19.25;12.88;;;;;;;-1.37;98.83;97353.63;5093204;28;20415;-69
2021/11/24 07:12:01;;;;;;;15.70;12.00;;;;;;;-1.45;98.26;97355.28;5102280;28;20407;-71
2021/11/24 07:14:27;;;;;;;15.20;12.05;;;;;;;-1.24;98.21;97350.75;5108387;28;20913;-70
2021/11/24 07:16:52;;;;;;;15.98;12.15;;;;;;;-1.13;96.71;97360.06;5092853;28;20414;-68
2021/11/24 07:19:21;;;;;;;15.00;12.10;;;;;;;-1.12;97.62;97361.69;5092089;28;20398;-68
2021/11/24 07:21:48;;;;;;;18.58;12.80;;;;;;;-1.36;97.70;97368.09;5099894;28;20464;-67
2021/11/24 07:24:15;;;;;;;18.02;12.18;;;;;;;-1.61;99.14;97353.25;5094175;28;20891;-67
2021/11/24 07:26:41;;;;;;;18.52;11.85;;;;;;;-1.32;98.73;97359.16;5090555;28;20405;-68
2021/11/24 07:29:07;;;;;;;16.98;11.70;;;;;;;-1.22;97.94;97359.13;5092320;28;20400;-68
2021/11/24 07:31:32;;;;;;;14.55;11.15;;;;;;;-1.01;96.18;97359.78;5092256;28;20390;-68
2021/11/24 07:33:57;;;;;;;15.40;11.33;;;;;;;-1.02;95.99;97357.34;5092295;28;20442;-68
2021/11/24 07:36:23;;;;;;;16.10;11.73;;;;;;;-0.91;95.75;97352.81;5099576;28;20394;-68
2021/11/24 07:38:48;;;;;;;17.35;12.07;;;;;;;-0.95;96.07;97351.47;5092103;28;20468;-68
2021/11/24 07:41:14;;;;;;;17.37;12.13;;;;;;;-1.11;97.67;97358.16;5100271;28;20737;-68
2021/11/24 07:43:39;;;;;;;18.83;12.63;;;;;;;-1.08;98.15;97351.00;5092320;28;20862;-67
2021/11/24 07:46:04;;;;;;;19.27;12.85;;;;;;;-0.79;96.91;97340.59;5107035;28;20499;-67
2021/11/24 07:48:30;;;;;;;17.50;12.40;;;;;;;-0.78;96.91;97351.69;5089409;28;20390;-68
2021/11/24 07:50:55;;;;;;;17.60;12.30;;;;;;;-0.81;97.19;97351.97;5090615;28;20859;-68
2021/11/24 07:53:21;;;;;;;17.63;12.80;;;;;;;-0.79;97.63;97352.66;5090754;28;20481;-68
2021/11/24 07:55:46;;;;;;;18.63;12.82;;;;;;;-0.52;96.37;97350.09;5106458;28;20396;-68
2021/11/24 07:58:13;;;;;;;19.07;12.83;;;;;;;-0.60;96.79;97342.25;5092679;28;20437;-68
2021/11/24 08:00:39;;;;;;;24.00;15.00;;;;;;;-0.47;97.38;97345.31;5093796;28;20375;-68
2021/11/24 08:03:04;;;;;;;20.92;13.20;;;;;;;-0.38;96.80;97346.19;5090454;28;20406;-68
2021/11/24 08:05:30;;;;;;;18.07;12.33;;;;;;;-0.44;96.58;97335.53;5091582;28;20410;-68
2021/11/24 08:07:55;;;;;;;17.63;12.50;;;;;;;-0.36;96.19;97349.44;5104631;28;20475;-68
2021/11/24 08:10:21;;;;;;;18.48;12.98;;;;;;;-0.52;97.34;97340.59;5093956;28;20407;-69
2021/11/24 08:12:46;;;;;;;17.33;12.45;;;;;;;-0.50;98.23;97341.25;5097838;28;20397;-68
2021/11/24 08:15:11;;;;;;;17.67;12.90;;;;;;;-0.17;96.87;97346.78;5092363;28;20382;-68
2021/11/24 08:17:37;;;;;;;17.00;12.27;;;;;;;0.02;95.34;97344.03;5101007;28;20487;-68
2021/11/24 08:20:04;;;;;;;16.48;12.18;;;;;;;-0.01;96.24;97345.16;5111857;28;20488;-68
2021/11/24 08:22:30;;;;;;;17.77;12.87;;;;;;;0.31;94.40;97344.63;5101024;28;20488;-68
2021/11/24 08:24:55;;;;;;;16.47;12.73;;;;;;;0.23;94.98;97331.66;5092572;28;20477;-68
2021/11/24 08:27:21;;;;;;;19.40;13.33;;;;;;;0.05;94.98;97330.06;5103171;28;20416;-68
2021/11/24 08:29:46;;;;;;;18.80;13.00;;;;;;;0.18;95.75;97333.88;5103894;28;20382;-68
2021/11/24 08:32:12;;;;;;;17.25;12.55;;;;;;;0.47;94.68;97325.91;5109185;28;20441;-68
2021/11/24 08:34:38;;;;;;;18.60;13.05;;;;;;;0.16;95.83;97325.50;5095416;28;20423;-68
2021/11/24 08:37:04;;;;;;;18.73;13.33;;;;;;;0.42;94.62;97325.53;5089789;28;20409;-68
2021/11/24 08:39:29;;;;;;;17.83;13.07;;;;;;;0.68;92.91;97328.13;5090868;28;20418;-67
2021/11/24 08:41:54;;;;;;;18.83;13.13;;;;;;;0.79;93.04;97314.97;5091768;28;20430;-68
2021/11/24 08:44:20;;;;;;;20.00;13.45;;;;;;;0.78;92.65;97311.59;5093809;28;20876;-67
2021/11/24 08:46:45;;;;;;;19.07;13.43;;;;;;;0.68;94.20;97308.31;5089721;28;20406;-67
2021/11/24 08:49:11;;;;;;;18.63;13.60;;;;;;;0.48;95.09;97311.25;5091394;28;20416;-67
2021/11/24 08:51:38;;;;;;;20.43;13.77;;;;;;;0.61;94.08;97302.16;5104482;28;20391;-67
2021/11/24 08:54:05;;;;;;;21.42;14.32;;;;;;;0.76;94.29;97310.94;5110278;28;20384;-68
2021/11/24 08:56:34;;;;;;;21.92;14.80;;;;;;;0.68;94.06;97304.91;5083501;28;20393;-68
2021/11/24 08:59:01;;;;;;;22.70;14.30;;;;;;;0.45;95.69;97296.88;5091802;28;20485;-68
2021/11/24 09:01:27;;;;;;;20.00;14.07;;;;;;;0.62;95.40;97297.78;5100801;28;20388;-68
2021/11/24 09:03:52;;;;;;;18.13;13.23;;;;;;;0.76;94.19;97303.22;5114037;28;20384;-68
2021/11/24 09:06:17;;;;;;;19.13;13.03;;;;;;;0.88;93.86;97306.34;5112589;28;20474;-68
2021/11/24 09:08:43;;;;;;;17.50;13.00;;;;;;;0.77;93.74;97298.88;5094838;28;20394;-68
2021/11/24 09:11:09;;;;;;;18.17;13.27;;;;;;;0.93;93.71;97287.81;5095539;28;21255;-68
2021/11/24 09:13:34;;;;;;;16.87;12.87;;;;;;;0.77;95.06;97291.13;5098034;28;20388;-68
2021/11/24 09:15:59;;;;;;;19.30;13.17;;;;;;;0.91;93.82;97289.72;5114473;28;20753;-68
2021/11/24 09:18:25;;;;;;;18.30;12.53;;;;;;;1.08;94.58;97281.91;5112722;28;20880;-68
2021/11/24 09:20:51;;;;;;;17.13;12.33;;;;;;;0.97;94.08;97284.78;5095577;28;20484;-68
2021/11/24 09:23:18;;;;;;;19.17;13.63;;;;;;;1.04;93.91;97279.81;5095027;28;20401;-68
2021/11/24 09:26:01;;;;;;;18.05;12.98;;;;;;;1.35;93.03;97280.06;5115046;28;20416;-68
2021/11/24 09:28:30;;;;;;;21.35;15.73;;;;;;;1.29;92.92;97276.34;5093167;28;20426;-68
2021/11/24 09:30:57;;;;;;;21.35;14.55;;;;;;;1.71;91.59;97280.66;5114308;28;20409;-68
2021/11/24 09:33:23;;;;;;;24.88;16.58;;;;;;;1.76;89.14;97273.25;5096898;28;20893;-69
2021/11/24 09:35:48;;;;;;;23.90;16.00;;;;;;;1.44;90.58;97271.41;5084638;28;20444;-68
2021/11/24 09:38:14;;;;;;;18.77;13.67;;;;;;;1.39;90.60;97271.88;5092945;28;20530;-68
2021/11/24 09:40:40;;;;;;;18.38;12.90;;;;;;;1.18;92.10;97259.38;5094911;28;20443;-68
2021/11/24 09:43:07;;;;;;;18.35;13.75;;;;;;;0.95;93.65;97258.31;5093867;28;20428;-68
2021/11/24 09:45:34;;;;;;;16.85;12.60;;;;;;;1.25;92.79;97256.97;5110877;28;20388;-68
2021/11/24 09:48:01;;;;;;;18.23;13.20;;;;;;;1.33;92.17;97249.25;5104917;28;20380;-68
2021/11/24 09:50:29;;;;;;;18.65;13.68;;;;;;;1.14;91.54;97245.16;5097334;28;20389;-68
2021/11/24 09:52:56;;;;;;;19.30;13.80;;;;;;;1.16;92.89;97232.91;5067939;28;20398;-68
2021/11/24 09:55:27;;;;;;;17.50;13.23;;;;;;;1.41;91.49;97235.53;5092723;28;20394;-69
2021/11/24 09:57:54;;;;;;;21.27;14.25;;;;;;;1.72;89.00;97236.59;5094251;28;20421;-69
2021/11/24 10:00:21;;;;;;;21.42;14.40;;;;;;;1.88;89.40;97233.19;5112831;28;20429;-69
2021/11/24 10:02:46;;;;;;;20.17;14.57;;;;;;;1.81;88.82;97220.13;5096311;28;20970;-69
2021/11/24 10:05:12;;;;;;;21.83;14.70;;;;;;;1.88;88.64;97225.44;5103067;28;20438;-69
2021/11/24 10:07:41;;;;;;;19.70;14.47;;;;;;;1.70;90.03;97217.03;5080808;28;20639;-69
2021/11/24 10:10:07;;;;;;;21.83;14.80;;;;;;;1.55;89.96;97220.25;5104638;28;20394;-69
2021/11/24 10:12:32;;;;;;;20.80;14.37;;;;;;;1.97;88.81;97217.53;5102039;28;20380;-69
2021/11/24 10:14:59;;;;;;;19.00;13.50;;;;;;;1.91;88.08;97217.34;5112232;28;20869;-68
2021/11/24 10:17:25;;;;;;;19.17;13.80;;;;;;;1.71;89.08;97209.13;5093847;28;20473;-68
2021/11/24 10:19:59;;;;;;;19.53;13.67;;;;;;;1.97;88.73;97203.78;5093874;28;20410;-68
2021/11/24 10:22:25;;;;;;;18.58;13.95;;;;;;;2.23;86.64;97194.06;5104989;28;20388;-69
2021/11/24 10:25:09;;;;;;;17.10;13.18;;;;;;;2.13;86.52;97197.78;5112556;28;20493;-68
2021/11/24 10:27:44;;;;;;;17.77;13.23;;;;;;;2.12;87.33;97188.44;5078570;28;20939;-68
2021/11/24 10:30:20;;;;;;;17.00;11.70;;;;;;;2.36;85.65;97176.28;5093157;28;20378;-68
2021/11/24 10:32:47;;;;;;;16.05;11.07;;;;;;;1.88;85.88;97184.09;5090141;28;20397;-68
2021/11/24 10:35:13;;;;;;;16.13;12.27;;;;;;;1.67;87.07;97177.63;5099883;28;20406;-68
2021/11/24 10:37:39;;;;;;;17.25;12.00;;;;;;;1.99;86.78;97166.50;5108423;28;20433;-68
2021/11/24 10:40:08;;;;;;;16.27;11.80;;;;;;;2.14;86.23;97160.63;5099492;28;20390;-69
2021/11/24 10:42:39;;;;;;;16.13;11.18;;;;;;;2.07;84.50;97158.72;5094250;28;20465;-68
2021/11/24 10:45:15;;;;;;;15.23;11.48;;;;;;;1.96;85.24;97153.06;5099841;28;20420;-68
2021/11/24 10:47:53;;;;;;;16.08;11.55;;;;;;;1.89;85.57;97146.97;5093498;28;20404;-68
2021/11/24 10:50:21;;;;;;;17.02;12.32;;;;;;;2.04;84.36;97142.72;5103586;28;20753;-68
2021/11/24 10:52:47;;;;;;;15.55;11.63;;;;;;;2.42;83.34;97136.81;5093648;28;20412;-68
2021/11/24 10:55:27;;;;;;;17.83;12.23;;;;;;;2.01;83.84;97137.88;5102497;28;20377;-68
2021/11/24 10:58:05;;;;;;;18.00;12.82;;;;;;;2.19;85.12;97133.31;5094797;28;20479;-68
2021/11/24 11:00:51;;;;;;;18.25;13.27;;;;;;;2.27;83.32;97129.91;5101071;28;20402;-68
2021/11/24 11:03:16;;;;;;;20.23;13.60;;;;;;;2.34;83.62;97128.28;5106754;28;20426;-69
2021/11/24 11:05:45;;;;;;;19.63;13.13;;;;;;;2.50;82.77;97131.63;5112923;28;20486;-68
2021/11/24 11:08:12;;;;;;;17.17;12.93;;;;;;;2.53;81.94;97122.69;5100150;28;20476;-68
2021/11/24 11:10:38;;;;;;;17.02;12.15;;;;;;;2.60;82.45;97117.66;5099588;28;20387;-68
2021/11/24 11:13:05;;;;;;;17.87;12.80;;;;;;;2.41;82.12;97113.69;5094906;28;20432;-69
2021/11/24 11:15:41;;;;;;;18.77;13.57;;;;;;;2.58;82.11;97109.25;5106540;28;20416;-68
2021/11/24 11:18:25;;;;;;;19.40;13.20;;;;;;;2.58;82.46;97099.72;5092815;28;20386;-68
2021/11/24 11:21:02;;;;;;;16.38;11.77;;;;;;;2.69;80.97;97099.34;5093146;28;20451;-68
2021/11/24 11:23:36;;;;;;;16.95;12.25;;;;;;;2.53;81.36;97096.84;5096468;28;20392;-68